Tavernier, Florida
Current Conditions -  °F | °C
As of 12:58 PM on Wednesday 28 Jan 2015 (Local Time) from KHST Reporting Station
Clear Clear  
Wind Chill: 65°   Ceiling: Unl
Heat Index: 65°   Visibility: 10mi
Dew Point: 36°   Wind: 16mph
Humidity: 34%   Direction: 340°NNW
Pressure: 30.14"   Gusts: NA
Location:  25.01°N, 80.51°W
Report Text: KHST 281758Z AUTO 34014KT 10SM CLR 19/02 A3014 RMK AO2 SLP210 T01860023 10187 20114 58013
Loading
Personal Weather Stations






























Interactive Weather Map New forecast layout! Learn more

10-Day Weather Forecast

Advertisements
Track Severe Weather on mobile